Pangborn Memorial Airport
KEAT : now visible

Airfield :











YOU CAN JOIN US ON...

 
LOGIN :

Register | Disclaimer

   EN    FR    IT 

 









Legend :    VFR   Marginal VFR   IFR   Intensive IFR   Very Intensive IFR
Visi :
Ceiling :
>= 8 km
>= 3000ft
5 to 8 km
1000 to 3000 ft
1500m to 5 km
500 to 1000 ft
800 to 1500m
200 to 500 ft
< 800m
< 200 ft
Symbols :   Thunderstorms  Fog  Heavy snow  Heavy precipitations  Wind > 20 kt






- Airport Elevation : 1249 ft


KEAT - Pangborn Memorial

CURRENT METAR :
  • 020055Z AUTO 08003KT 10SM OVC014 M04/M07 A2974 RMK AO2 SLP086 T10391067

EXPIRED METARs :
  • 012355Z AUTO 00000KT 10SM OVC013 M03/M06 A2972 RMK AO2 SLP080 T10331061 11028 21056 53015
  • 012311Z AUTO 00000KT 10SM OVC010 M03/M06 A2970 RMK AO2 T10331056
  • 012255Z AUTO 00000KT 10SM OVC009 M03/M06 A2969 RMK AO2 SLP070 T10331056

TAF KEAT
Valid from the 02 at 00:00 until the 03 at 00:00 UTC


012346Z 0200/0224 32003KT P6SM OVC010
FM020200 31004KT P6SM BKN008 BKN070
FM021000 31005KT P6SM SCT010 BKN050
KZSE FIR / North America



MET'MAP, your aeronautical weather chart ! - Copyright ORBIFLY December 2007 - Disclaimer

ORBIFLY MET'MAP TEAM :

Programming & Development : Alexandra Zaïnal
Original concept : Baudouin d'Aumeries
Technical & hardware support : Manuel Goepfert
Assistance : Marc-Olivier Méhu




SOURCES & CREDITS :

   NOAA       Earth
Advisory